sensor_id;sensor_type;location;lat;lon;timestamp;pressure;altitude;pressure_sealevel;temperature;humidity
31911;BME280;18457;52.432;16.914;2023-03-21T00:00:59;100452.98;;;10.33;84.17
31911;BME280;18457;52.432;16.914;2023-03-21T00:03:35;100458.09;;;10.23;84.25
31911;BME280;18457;52.432;16.914;2023-03-21T00:06:11;100457.18;;;10.23;84.39
31911;BME280;18457;52.432;16.914;2023-03-21T00:08:45;100456.98;;;10.24;84.10
31911;BME280;18457;52.432;16.914;2023-03-21T00:11:18;100459.32;;;10.25;83.62
31911;BME280;18457;52.432;16.914;2023-03-21T00:13:52;100461.38;;;10.30;83.24
31911;BME280;18457;52.432;16.914;2023-03-21T00:16:32;100458.38;;;10.27;83.38
31911;BME280;18457;52.432;16.914;2023-03-21T00:19:10;100454.02;;;10.27;83.44
31911;BME280;18457;52.432;16.914;2023-03-21T00:21:44;100456.13;;;10.21;83.52
31911;BME280;18457;52.432;16.914;2023-03-21T00:24:37;100454.59;;;10.18;83.65
31911;BME280;18457;52.432;16.914;2023-03-21T00:27:10;100457.23;;;10.20;83.70
31911;BME280;18457;52.432;16.914;2023-03-21T00:30:02;100453.77;;;10.15;83.77
31911;BME280;18457;52.432;16.914;2023-03-21T00:32:35;100447.61;;;10.24;83.45
31911;BME280;18457;52.432;16.914;2023-03-21T00:35:19;100445.67;;;10.13;83.87
31911;BME280;18457;52.432;16.914;2023-03-21T00:38:11;100450.77;;;10.20;83.75
31911;BME280;18457;52.432;16.914;2023-03-21T00:40:43;100455.73;;;10.16;84.01
31911;BME280;18457;52.432;16.914;2023-03-21T00:43:19;100450.87;;;10.15;84.40
31911;BME280;18457;52.432;16.914;2023-03-21T00:45:53;100449.39;;;10.07;84.60
31911;BME280;18457;52.432;16.914;2023-03-21T00:48:25;100449.79;;;10.15;84.39
31911;BME280;18457;52.432;16.914;2023-03-21T00:50:59;100445.34;;;10.20;84.11
31911;BME280;18457;52.432;16.914;2023-03-21T00:53:30;100448.03;;;10.11;84.55
31911;BME280;18457;52.432;16.914;2023-03-21T00:56:03;100451.25;;;9.95;85.05
31911;BME280;18457;52.432;16.914;2023-03-21T00:58:33;100453.14;;;9.91;85.44
31911;BME280;18457;52.432;16.914;2023-03-21T01:01:06;100454.29;;;9.79;85.58
31911;BME280;18457;52.432;16.914;2023-03-21T01:03:40;100447.77;;;9.89;85.44
31911;BME280;18457;52.432;16.914;2023-03-21T01:06:20;100445.82;;;9.96;85.22
31911;BME280;18457;52.432;16.914;2023-03-21T01:08:53;100446.86;;;9.98;84.98
31911;BME280;18457;52.432;16.914;2023-03-21T01:11:26;100449.08;;;9.96;84.90
31911;BME280;18457;52.432;16.914;2023-03-21T01:13:59;100452.40;;;9.92;84.98
31911;BME280;18457;52.432;16.914;2023-03-21T01:16:49;100453.06;;;9.86;85.27
31911;BME280;18457;52.432;16.914;2023-03-21T01:19:23;100448.91;;;9.78;85.66
31911;BME280;18457;52.432;16.914;2023-03-21T01:22:17;100451.30;;;9.76;85.91
31911;BME280;18457;52.432;16.914;2023-03-21T01:24:50;100450.66;;;9.72;86.38
31911;BME280;18457;52.432;16.914;2023-03-21T01:27:30;100451.05;;;9.70;86.67
31911;BME280;18457;52.432;16.914;2023-03-21T01:30:02;100448.04;;;9.76;86.67
31911;BME280;18457;52.432;16.914;2023-03-21T01:32:50;100451.45;;;9.86;86.39
31911;BME280;18457;52.432;16.914;2023-03-21T01:35:22;100450.01;;;9.86;86.72
31911;BME280;18457;52.432;16.914;2023-03-21T01:37:56;100451.18;;;9.82;86.73
31911;BME280;18457;52.432;16.914;2023-03-21T01:40:30;100451.64;;;9.77;87.04
31911;BME280;18457;52.432;16.914;2023-03-21T01:43:22;100450.89;;;9.87;86.66
31911;BME280;18457;52.432;16.914;2023-03-21T01:46:21;100447.91;;;9.91;86.71
31911;BME280;18457;52.432;16.914;2023-03-21T01:49:17;100445.67;;;9.86;86.29
31911;BME280;18457;52.432;16.914;2023-03-21T01:51:56;100444.36;;;9.79;86.84
31911;BME280;18457;52.432;16.914;2023-03-21T01:54:46;100443.19;;;9.75;86.46
31911;BME280;18457;52.432;16.914;2023-03-21T01:57:23;100444.81;;;9.75;86.32
31911;BME280;18457;52.432;16.914;2023-03-21T02:00:20;100442.04;;;9.70;86.36
31911;BME280;18457;52.432;16.914;2023-03-21T02:03:02;100439.40;;;9.75;86.09
31911;BME280;18457;52.432;16.914;2023-03-21T02:05:57;100441.15;;;9.79;85.98
31911;BME280;18457;52.432;16.914;2023-03-21T02:08:35;100439.96;;;9.74;85.82
31911;BME280;18457;52.432;16.914;2023-03-21T02:11:12;100441.84;;;9.71;86.05
31911;BME280;18457;52.432;16.914;2023-03-21T02:13:46;100439.20;;;9.67;86.19
31911;BME280;18457;52.432;16.914;2023-03-21T02:16:36;100435.20;;;9.68;86.06
31911;BME280;18457;52.432;16.914;2023-03-21T02:19:41;100435.52;;;9.62;86.05
31911;BME280;18457;52.432;16.914;2023-03-21T02:28:37;100434.30;;;9.50;86.85
31911;BME280;18457;52.432;16.914;2023-03-21T02:31:24;100436.61;;;9.52;86.85
31911;BME280;18457;52.432;16.914;2023-03-21T02:37:07;100439.34;;;9.41;86.99
31911;BME280;18457;52.432;16.914;2023-03-21T02:39:50;100441.87;;;9.41;87.48
31911;BME280;18457;52.432;16.914;2023-03-21T02:42:31;100439.56;;;9.39;87.81
31911;BME280;18457;52.432;16.914;2023-03-21T02:45:08;100434.88;;;9.39;88.08
31911;BME280;18457;52.432;16.914;2023-03-21T02:47:45;100434.79;;;9.44;88.18
31911;BME280;18457;52.432;16.914;2023-03-21T02:50:27;100433.18;;;9.43;88.29
31911;BME280;18457;52.432;16.914;2023-03-21T02:53:05;100430.31;;;9.43;88.41
31911;BME280;18457;52.432;16.914;2023-03-21T02:55:42;100433.21;;;9.41;88.55
31911;BME280;18457;52.432;16.914;2023-03-21T02:58:16;100432.33;;;9.49;87.93
31911;BME280;18457;52.432;16.914;2023-03-21T03:00:54;100436.89;;;9.47;88.51
31911;BME280;18457;52.432;16.914;2023-03-21T03:03:34;100440.46;;;9.40;88.88
31911;BME280;18457;52.432;16.914;2023-03-21T03:06:19;100439.20;;;9.39;88.78
31911;BME280;18457;52.432;16.914;2023-03-21T03:09:09;100439.77;;;9.37;89.19
31911;BME280;18457;52.432;16.914;2023-03-21T03:11:49;100440.49;;;9.37;89.48
31911;BME280;18457;52.432;16.914;2023-03-21T03:14:51;100440.36;;;9.45;88.99
31911;BME280;18457;52.432;16.914;2023-03-21T03:18:03;100440.82;;;9.40;89.60
31911;BME280;18457;52.432;16.914;2023-03-21T03:20:51;100440.42;;;9.41;90.11
31911;BME280;18457;52.432;16.914;2023-03-21T03:23:33;100446.17;;;9.42;89.93
31911;BME280;18457;52.432;16.914;2023-03-21T03:26:11;100442.90;;;9.34;90.13
31911;BME280;18457;52.432;16.914;2023-03-21T03:28:49;100443.41;;;9.27;90.78
31911;BME280;18457;52.432;16.914;2023-03-21T03:31:26;100440.00;;;9.25;91.27
31911;BME280;18457;52.432;16.914;2023-03-21T03:34:06;100438.66;;;9.20;91.31
31911;BME280;18457;52.432;16.914;2023-03-21T03:36:45;100439.10;;;9.15;91.81
31911;BME280;18457;52.432;16.914;2023-03-21T03:39:34;100437.59;;;9.10;92.08
31911;BME280;18457;52.432;16.914;2023-03-21T03:42:11;100441.70;;;9.21;91.24
31911;BME280;18457;52.432;16.914;2023-03-21T03:45:08;100443.89;;;9.20;90.84
31911;BME280;18457;52.432;16.914;2023-03-21T03:47:43;100446.67;;;9.15;90.92
31911;BME280;18457;52.432;16.914;2023-03-21T03:50:31;100444.70;;;9.14;90.80
31911;BME280;18457;52.432;16.914;2023-03-21T03:53:48;100445.14;;;9.10;90.92
31911;BME280;18457;52.432;16.914;2023-03-21T03:56:33;100447.73;;;9.17;90.60
31911;BME280;18457;52.432;16.914;2023-03-21T03:59:07;100451.11;;;9.19;90.52
31911;BME280;18457;52.432;16.914;2023-03-21T04:02:03;100454.23;;;9.15;90.34
31911;BME280;18457;52.432;16.914;2023-03-21T04:05:13;100453.73;;;9.24;89.95
31911;BME280;18457;52.432;16.914;2023-03-21T04:07:53;100448.41;;;9.19;90.17
31911;BME280;18457;52.432;16.914;2023-03-21T04:10:48;100455.96;;;9.19;90.21
31911;BME280;18457;52.432;16.914;2023-03-21T04:13:27;100441.70;;;9.21;89.86
31911;BME280;18457;52.432;16.914;2023-03-21T04:16:29;100458.25;;;9.23;89.85
31911;BME280;18457;52.432;16.914;2023-03-21T04:19:22;100458.27;;;9.21;89.67
31911;BME280;18457;52.432;16.914;2023-03-21T04:21:56;100460.56;;;9.14;89.91
31911;BME280;18457;52.432;16.914;2023-03-21T04:24:30;100461.20;;;9.20;89.98
31911;BME280;18457;52.432;16.914;2023-03-21T04:27:04;100457.91;;;9.22;89.74
31911;BME280;18457;52.432;16.914;2023-03-21T04:29:44;100463.42;;;9.17;89.91
31911;BME280;18457;52.432;16.914;2023-03-21T04:32:28;100459.67;;;9.24;89.56
31911;BME280;18457;52.432;16.914;2023-03-21T04:35:10;100459.70;;;9.24;89.42
31911;BME280;18457;52.432;16.914;2023-03-21T04:37:42;100459.48;;;9.24;89.44
31911;BME280;18457;52.432;16.914;2023-03-21T04:40:17;100459.68;;;9.24;89.15
31911;BME280;18457;52.432;16.914;2023-03-21T04:42:50;100468.42;;;9.18;89.62
31911;BME280;18457;52.432;16.914;2023-03-21T04:45:22;100471.25;;;9.12;90.29
31911;BME280;18457;52.432;16.914;2023-03-21T04:47:55;100473.80;;;9.10;90.55
31911;BME280;18457;52.432;16.914;2023-03-21T04:50:28;100476.10;;;9.12;90.52
31911;BME280;18457;52.432;16.914;2023-03-21T04:53:03;100472.81;;;9.15;90.34
31911;BME280;18457;52.432;16.914;2023-03-21T04:55:38;100469.67;;;9.09;90.59
31911;BME280;18457;52.432;16.914;2023-03-21T04:58:11;100471.17;;;9.05;90.92
31911;BME280;18457;52.432;16.914;2023-03-21T05:00:44;100473.20;;;9.02;91.12
31911;BME280;18457;52.432;16.914;2023-03-21T05:03:17;100472.23;;;8.96;91.49
31911;BME280;18457;52.432;16.914;2023-03-21T05:05:52;100471.05;;;9.03;91.39
31911;BME280;18457;52.432;16.914;2023-03-21T05:08:28;100477.30;;;8.94;92.05
31911;BME280;18457;52.432;16.914;2023-03-21T05:11:02;100476.28;;;9.02;91.75
31911;BME280;18457;52.432;16.914;2023-03-21T05:13:39;100479.10;;;8.95;92.13
31911;BME280;18457;52.432;16.914;2023-03-21T05:16:12;100482.42;;;9.00;91.99
31911;BME280;18457;52.432;16.914;2023-03-21T05:18:47;100476.41;;;9.05;91.66
31911;BME280;18457;52.432;16.914;2023-03-21T05:21:22;100477.95;;;9.09;91.43
31911;BME280;18457;52.432;16.914;2023-03-21T05:23:55;100481.11;;;9.04;91.48
31911;BME280;18457;52.432;16.914;2023-03-21T05:26:29;100480.89;;;9.06;91.73
31911;BME280;18457;52.432;16.914;2023-03-21T05:29:11;100481.17;;;9.11;91.43
31911;BME280;18457;52.432;16.914;2023-03-21T05:31:44;100484.48;;;9.17;91.19
31911;BME280;18457;52.432;16.914;2023-03-21T05:34:17;100488.98;;;9.19;91.12
31911;BME280;18457;52.432;16.914;2023-03-21T05:36:50;100488.64;;;9.17;91.07
31911;BME280;18457;52.432;16.914;2023-03-21T05:39:23;100487.30;;;9.11;91.51
31911;BME280;18457;52.432;16.914;2023-03-21T05:42:20;100491.11;;;9.09;91.61
31911;BME280;18457;52.432;16.914;2023-03-21T05:44:53;100493.17;;;9.05;92.05
31911;BME280;18457;52.432;16.914;2023-03-21T05:47:32;100490.83;;;9.04;92.14
31911;BME280;18457;52.432;16.914;2023-03-21T05:50:07;100491.86;;;9.07;92.21
31911;BME280;18457;52.432;16.914;2023-03-21T05:52:39;100494.96;;;9.05;92.34
31911;BME280;18457;52.432;16.914;2023-03-21T05:55:15;100497.30;;;9.05;92.06
31911;BME280;18457;52.432;16.914;2023-03-21T05:57:46;100500.86;;;9.08;91.98
31911;BME280;18457;52.432;16.914;2023-03-21T06:00:29;100508.34;;;9.14;91.78
31911;BME280;18457;52.432;16.914;2023-03-21T06:03:16;100507.31;;;9.21;91.65
31911;BME280;18457;52.432;16.914;2023-03-21T06:06:00;100510.55;;;9.22;91.36
31911;BME280;18457;52.432;16.914;2023-03-21T06:08:38;100508.70;;;9.14;91.92
31911;BME280;18457;52.432;16.914;2023-03-21T06:11:19;100508.52;;;9.14;92.02
31911;BME280;18457;52.432;16.914;2023-03-21T06:13:57;100509.73;;;9.17;91.90
31911;BME280;18457;52.432;16.914;2023-03-21T06:16:30;100510.92;;;9.21;91.53
31911;BME280;18457;52.432;16.914;2023-03-21T06:19:06;100510.66;;;9.15;91.98
31911;BME280;18457;52.432;16.914;2023-03-21T06:21:45;100508.70;;;9.13;91.99
31911;BME280;18457;52.432;16.914;2023-03-21T06:24:17;100504.85;;;9.18;92.08
31911;BME280;18457;52.432;16.914;2023-03-21T06:26:49;100508.89;;;9.24;91.47
31911;BME280;18457;52.432;16.914;2023-03-21T06:29:21;100512.02;;;9.30;91.69
31911;BME280;18457;52.432;16.914;2023-03-21T06:31:54;100515.41;;;9.22;91.93
31911;BME280;18457;52.432;16.914;2023-03-21T06:34:27;100514.63;;;9.15;92.33
31911;BME280;18457;52.432;16.914;2023-03-21T06:36:59;100510.44;;;9.17;92.34
31911;BME280;18457;52.432;16.914;2023-03-21T06:39:34;100516.79;;;9.15;92.32
31911;BME280;18457;52.432;16.914;2023-03-21T06:42:06;100517.38;;;9.23;92.59
31911;BME280;18457;52.432;16.914;2023-03-21T06:44:38;100520.20;;;9.26;92.35
31911;BME280;18457;52.432;16.914;2023-03-21T06:47:14;100521.03;;;9.19;92.72
31911;BME280;18457;52.432;16.914;2023-03-21T06:49:47;100524.88;;;9.26;92.56
31911;BME280;18457;52.432;16.914;2023-03-21T06:52:19;100524.45;;;9.20;92.64
31911;BME280;18457;52.432;16.914;2023-03-21T06:54:51;100525.59;;;9.16;93.02
31911;BME280;18457;52.432;16.914;2023-03-21T06:57:24;100520.51;;;9.19;93.05
31911;BME280;18457;52.432;16.914;2023-03-21T06:59:57;100524.47;;;9.20;93.62
31911;BME280;18457;52.432;16.914;2023-03-21T07:02:28;100528.67;;;9.26;93.60
31911;BME280;18457;52.432;16.914;2023-03-21T07:05:14;100527.71;;;9.29;93.28
31911;BME280;18457;52.432;16.914;2023-03-21T07:07:47;100526.54;;;9.35;93.21
31911;BME280;18457;52.432;16.914;2023-03-21T07:10:19;100531.57;;;9.36;92.68
31911;BME280;18457;52.432;16.914;2023-03-21T07:13:03;100536.42;;;9.38;92.82
31911;BME280;18457;52.432;16.914;2023-03-21T07:15:44;100538.19;;;9.39;92.60
31911;BME280;18457;52.432;16.914;2023-03-21T07:18:16;100539.88;;;9.45;92.96
31911;BME280;18457;52.432;16.914;2023-03-21T07:20:49;100544.73;;;9.46;92.99
31911;BME280;18457;52.432;16.914;2023-03-21T07:23:23;100544.17;;;9.57;92.67
31911;BME280;18457;52.432;16.914;2023-03-21T07:25:57;100547.23;;;9.58;92.04
31911;BME280;18457;52.432;16.914;2023-03-21T07:28:29;100548.48;;;9.50;91.50
31911;BME280;18457;52.432;16.914;2023-03-21T07:31:03;100552.27;;;9.49;91.32
31911;BME280;18457;52.432;16.914;2023-03-21T07:33:36;100553.48;;;9.40;91.51
31911;BME280;18457;52.432;16.914;2023-03-21T07:36:10;100553.10;;;9.42;91.80
31911;BME280;18457;52.432;16.914;2023-03-21T07:38:45;100551.90;;;9.48;91.65
31911;BME280;18457;52.432;16.914;2023-03-21T07:41:18;100553.55;;;9.58;91.20
31911;BME280;18457;52.432;16.914;2023-03-21T07:43:52;100553.08;;;9.63;91.28
31911;BME280;18457;52.432;16.914;2023-03-21T07:46:24;100559.72;;;9.75;91.91
31911;BME280;18457;52.432;16.914;2023-03-21T07:48:57;100556.16;;;9.73;90.64
31911;BME280;18457;52.432;16.914;2023-03-21T07:51:32;100559.70;;;9.76;90.72
31911;BME280;18457;52.432;16.914;2023-03-21T07:54:05;100562.08;;;9.84;89.97
31911;BME280;18457;52.432;16.914;2023-03-21T07:56:37;100561.66;;;9.78;89.82
31911;BME280;18457;52.432;16.914;2023-03-21T07:59:09;100560.73;;;9.80;89.72
31911;BME280;18457;52.432;16.914;2023-03-21T08:01:41;100567.01;;;9.73;89.81
31911;BME280;18457;52.432;16.914;2023-03-21T08:04:13;100563.73;;;9.73;90.21
31911;BME280;18457;52.432;16.914;2023-03-21T08:06:45;100559.17;;;9.86;89.97
31911;BME280;18457;52.432;16.914;2023-03-21T08:09:17;100565.13;;;9.96;89.84
31911;BME280;18457;52.432;16.914;2023-03-21T08:11:49;100559.80;;;10.00;89.85
31911;BME280;18457;52.432;16.914;2023-03-21T08:14:21;100559.88;;;10.06;88.78
31911;BME280;18457;52.432;16.914;2023-03-21T08:16:53;100562.39;;;10.17;88.22
31911;BME280;18457;52.432;16.914;2023-03-21T08:19:25;100562.81;;;10.14;88.42
31911;BME280;18457;52.432;16.914;2023-03-21T08:21:57;100564.24;;;10.14;88.48
31911;BME280;18457;52.432;16.914;2023-03-21T08:24:29;100569.17;;;10.12;88.41
31911;BME280;18457;52.432;16.914;2023-03-21T08:27:01;100572.20;;;10.04;88.54
31911;BME280;18457;52.432;16.914;2023-03-21T08:29:32;100571.56;;;10.07;88.66
31911;BME280;18457;52.432;16.914;2023-03-21T08:32:09;100572.95;;;10.13;88.49
31911;BME280;18457;52.432;16.914;2023-03-21T08:34:41;100577.21;;;10.15;88.53
31911;BME280;18457;52.432;16.914;2023-03-21T08:37:13;100583.00;;;10.15;88.35
31911;BME280;18457;52.432;16.914;2023-03-21T08:39:46;100580.85;;;10.15;88.59
31911;BME280;18457;52.432;16.914;2023-03-21T08:42:18;100580.71;;;10.22;88.04
31911;BME280;18457;52.432;16.914;2023-03-21T08:44:50;100579.33;;;10.28;87.92
31911;BME280;18457;52.432;16.914;2023-03-21T08:47:22;100584.00;;;10.37;87.59
31911;BME280;18457;52.432;16.914;2023-03-21T08:49:54;100587.91;;;10.40;86.90
31911;BME280;18457;52.432;16.914;2023-03-21T08:52:28;100586.98;;;10.51;85.91
31911;BME280;18457;52.432;16.914;2023-03-21T08:55:01;100587.39;;;10.48;86.12
31911;BME280;18457;52.432;16.914;2023-03-21T08:57:33;100590.64;;;10.48;86.01
31911;BME280;18457;52.432;16.914;2023-03-21T09:00:09;100590.72;;;10.44;85.74
31911;BME280;18457;52.432;16.914;2023-03-21T09:02:45;100589.45;;;10.44;86.21
31911;BME280;18457;52.432;16.914;2023-03-21T09:05:18;100588.30;;;10.48;85.91
31911;BME280;18457;52.432;16.914;2023-03-21T09:07:51;100594.74;;;10.42;85.96
31911;BME280;18457;52.432;16.914;2023-03-21T09:10:23;100598.11;;;10.45;85.91
31911;BME280;18457;52.432;16.914;2023-03-21T09:12:56;100599.95;;;10.44;85.89
31911;BME280;18457;52.432;16.914;2023-03-21T09:15:28;100601.63;;;10.49;85.22
31911;BME280;18457;52.432;16.914;2023-03-21T09:18:00;100605.36;;;10.53;84.47
31911;BME280;18457;52.432;16.914;2023-03-21T09:20:43;100605.09;;;10.48;84.56
31911;BME280;18457;52.432;16.914;2023-03-21T09:23:16;100602.71;;;10.49;84.79
31911;BME280;18457;52.432;16.914;2023-03-21T09:25:49;100603.14;;;10.55;84.82
31911;BME280;18457;52.432;16.914;2023-03-21T09:28:22;100605.88;;;10.45;84.85
31911;BME280;18457;52.432;16.914;2023-03-21T09:30:54;100608.38;;;10.47;84.63
31911;BME280;18457;52.432;16.914;2023-03-21T09:33:30;100602.38;;;10.57;84.73
31911;BME280;18457;52.432;16.914;2023-03-21T09:36:06;100602.52;;;10.59;84.56
31911;BME280;18457;52.432;16.914;2023-03-21T09:38:43;100604.98;;;10.62;84.13
31911;BME280;18457;52.432;16.914;2023-03-21T09:41:25;100603.50;;;10.72;83.70
31911;BME280;18457;52.432;16.914;2023-03-21T09:44:16;100607.40;;;10.67;83.29
31911;BME280;18457;52.432;16.914;2023-03-21T09:46:56;100602.42;;;10.72;83.27
31911;BME280;18457;52.432;16.914;2023-03-21T09:49:34;100604.30;;;10.77;82.50
31911;BME280;18457;52.432;16.914;2023-03-21T09:52:15;100603.44;;;10.67;82.63
31911;BME280;18457;52.432;16.914;2023-03-21T09:54:49;100606.53;;;10.65;82.07
31911;BME280;18457;52.432;16.914;2023-03-21T09:57:30;100603.25;;;10.67;82.07
31911;BME280;18457;52.432;16.914;2023-03-21T10:00:06;100583.17;;;10.61;82.27
31911;BME280;18457;52.432;16.914;2023-03-21T10:02:51;100605.27;;;10.82;82.35
31911;BME280;18457;52.432;16.914;2023-03-21T10:05:31;100602.19;;;10.91;82.11
31911;BME280;18457;52.432;16.914;2023-03-21T10:08:07;100603.58;;;10.94;81.83
31911;BME280;18457;52.432;16.914;2023-03-21T10:10:45;100598.95;;;11.06;81.11
31911;BME280;18457;52.432;16.914;2023-03-21T10:13:22;100599.27;;;11.23;80.88
31911;BME280;18457;52.432;16.914;2023-03-21T10:15:59;100601.05;;;11.24;79.86
31911;BME280;18457;52.432;16.914;2023-03-21T10:18:31;100595.93;;;11.33;79.20
31911;BME280;18457;52.432;16.914;2023-03-21T10:21:05;100598.86;;;11.40;78.94
31911;BME280;18457;52.432;16.914;2023-03-21T10:23:37;100595.00;;;11.42;78.69
31911;BME280;18457;52.432;16.914;2023-03-21T10:26:09;100600.52;;;11.31;78.41
31911;BME280;18457;52.432;16.914;2023-03-21T10:28:47;100600.69;;;11.31;78.05
31911;BME280;18457;52.432;16.914;2023-03-21T10:31:29;100600.98;;;11.42;77.37
31911;BME280;18457;52.432;16.914;2023-03-21T10:34:06;100599.96;;;11.31;77.50
31911;BME280;18457;52.432;16.914;2023-03-21T10:36:40;100602.35;;;11.23;77.56
31911;BME280;18457;52.432;16.914;2023-03-21T10:39:20;100602.02;;;11.21;77.75
31911;BME280;18457;52.432;16.914;2023-03-21T10:41:58;100600.84;;;11.25;77.84
31911;BME280;18457;52.432;16.914;2023-03-21T10:44:33;100605.54;;;11.33;77.41
31911;BME280;18457;52.432;16.914;2023-03-21T10:47:06;100598.33;;;11.39;77.09
31911;BME280;18457;52.432;16.914;2023-03-21T10:49:39;100597.19;;;11.41;76.53
31911;BME280;18457;52.432;16.914;2023-03-21T10:52:33;100600.55;;;11.37;77.33
31911;BME280;18457;52.432;16.914;2023-03-21T10:55:14;100600.70;;;11.38;76.87
31911;BME280;18457;52.432;16.914;2023-03-21T10:57:48;100599.77;;;11.48;76.92
31911;BME280;18457;52.432;16.914;2023-03-21T11:00:26;100595.48;;;11.68;76.76
31911;BME280;18457;52.432;16.914;2023-03-21T11:02:59;100594.45;;;11.87;76.06
31911;BME280;18457;52.432;16.914;2023-03-21T11:05:37;100589.93;;;12.07;75.39
31911;BME280;18457;52.432;16.914;2023-03-21T11:08:14;100589.55;;;12.26;74.81
31911;BME280;18457;52.432;16.914;2023-03-21T11:10:53;100587.96;;;12.25;72.74
31911;BME280;18457;52.432;16.914;2023-03-21T11:13:31;100582.73;;;12.18;71.39
31911;BME280;18457;52.432;16.914;2023-03-21T11:16:08;100584.71;;;12.31;71.65
31911;BME280;18457;52.432;16.914;2023-03-21T11:18:43;100583.54;;;12.34;70.80
31911;BME280;18457;52.432;16.914;2023-03-21T11:21:17;100579.02;;;12.34;70.88
31911;BME280;18457;52.432;16.914;2023-03-21T11:23:51;100578.23;;;12.49;70.49
31911;BME280;18457;52.432;16.914;2023-03-21T11:26:30;100575.73;;;12.47;70.85
31911;BME280;18457;52.432;16.914;2023-03-21T11:29:19;100573.45;;;12.57;71.32
31911;BME280;18457;52.432;16.914;2023-03-21T11:31:57;100569.77;;;12.59;70.57
31911;BME280;18457;52.432;16.914;2023-03-21T11:34:41;100567.95;;;12.46;69.31
31911;BME280;18457;52.432;16.914;2023-03-21T11:37:23;100564.90;;;12.52;69.21
31911;BME280;18457;52.432;16.914;2023-03-21T11:40:04;100567.02;;;12.60;69.37
31911;BME280;18457;52.432;16.914;2023-03-21T11:42:43;100566.77;;;12.56;69.47
31911;BME280;18457;52.432;16.914;2023-03-21T11:45:19;100566.20;;;12.51;69.78
31911;BME280;18457;52.432;16.914;2023-03-21T11:47:54;100562.90;;;12.46;70.22
31911;BME280;18457;52.432;16.914;2023-03-21T11:50:32;100562.30;;;12.54;69.57
31911;BME280;18457;52.432;16.914;2023-03-21T11:53:19;100556.23;;;12.57;69.19
31911;BME280;18457;52.432;16.914;2023-03-21T11:56:07;100552.00;;;12.54;69.33
31911;BME280;18457;52.432;16.914;2023-03-21T11:58:54;100548.41;;;12.52;69.10
31911;BME280;18457;52.432;16.914;2023-03-21T12:01:39;100553.48;;;12.52;68.75
31911;BME280;18457;52.432;16.914;2023-03-21T12:04:24;100549.05;;;12.66;68.41
31911;BME280;18457;52.432;16.914;2023-03-21T12:07:06;100543.79;;;12.78;67.87
31911;BME280;18457;52.432;16.914;2023-03-21T12:09:45;100542.80;;;12.98;67.69
31911;BME280;18457;52.432;16.914;2023-03-21T12:12:29;100541.55;;;12.86;67.64
31911;BME280;18457;52.432;16.914;2023-03-21T12:15:15;100544.15;;;12.84;67.04
31911;BME280;18457;52.432;16.914;2023-03-21T12:17:57;100539.59;;;12.68;66.60
31911;BME280;18457;52.432;16.914;2023-03-21T12:20:39;100539.14;;;12.59;66.37
31911;BME280;18457;52.432;16.914;2023-03-21T12:23:34;100535.25;;;12.73;67.01
31911;BME280;18457;52.432;16.914;2023-03-21T12:26:20;100536.15;;;12.74;66.66
31911;BME280;18457;52.432;16.914;2023-03-21T12:28:56;100532.07;;;12.70;66.85
31911;BME280;18457;52.432;16.914;2023-03-21T12:31:41;100533.39;;;12.75;67.26
31911;BME280;18457;52.432;16.914;2023-03-21T12:34:23;100528.48;;;12.69;67.76
31911;BME280;18457;52.432;16.914;2023-03-21T12:37:11;100526.12;;;12.81;67.52
31911;BME280;18457;52.432;16.914;2023-03-21T12:39:52;100525.98;;;12.91;67.13
31911;BME280;18457;52.432;16.914;2023-03-21T12:43:06;100526.02;;;13.08;66.51
31911;BME280;18457;52.432;16.914;2023-03-21T12:45:49;100518.23;;;13.25;65.65
31911;BME280;18457;52.432;16.914;2023-03-21T12:48:29;100518.92;;;13.31;65.15
31911;BME280;18457;52.432;16.914;2023-03-21T12:51:07;100513.45;;;13.31;63.57
31911;BME280;18457;52.432;16.914;2023-03-21T12:53:49;100507.25;;;13.33;63.42
31911;BME280;18457;52.432;16.914;2023-03-21T12:56:26;100509.27;;;13.26;62.28
31911;BME280;18457;52.432;16.914;2023-03-21T12:59:05;100504.61;;;13.35;61.85
31911;BME280;18457;52.432;16.914;2023-03-21T13:01:40;100501.21;;;13.44;62.20
31911;BME280;18457;52.432;16.914;2023-03-21T13:04:33;100504.97;;;13.36;61.97
31911;BME280;18457;52.432;16.914;2023-03-21T13:07:09;100501.63;;;13.43;61.62
31911;BME280;18457;52.432;16.914;2023-03-21T13:09:43;100499.35;;;13.41;62.11
31911;BME280;18457;52.432;16.914;2023-03-21T13:12:42;100487.58;;;13.45;62.49
31911;BME280;18457;52.432;16.914;2023-03-21T13:15:27;100482.69;;;13.39;62.85
31911;BME280;18457;52.432;16.914;2023-03-21T13:18:14;100481.10;;;13.43;63.17
31911;BME280;18457;52.432;16.914;2023-03-21T13:20:51;100481.42;;;13.40;63.11
31911;BME280;18457;52.432;16.914;2023-03-21T13:23:25;100475.45;;;13.29;62.82
31911;BME280;18457;52.432;16.914;2023-03-21T13:26:09;100478.70;;;13.35;63.36
31911;BME280;18457;52.432;16.914;2023-03-21T13:28:42;100473.66;;;13.49;63.59
31911;BME280;18457;52.432;16.914;2023-03-21T13:31:23;100470.90;;;13.50;63.38
31911;BME280;18457;52.432;16.914;2023-03-21T13:33:59;100469.70;;;13.37;63.34
31911;BME280;18457;52.432;16.914;2023-03-21T13:36:44;100469.98;;;13.13;64.07
31911;BME280;18457;52.432;16.914;2023-03-21T13:39:19;100463.64;;;13.07;64.68
31911;BME280;18457;52.432;16.914;2023-03-21T13:41:51;100461.39;;;12.98;64.98
31911;BME280;18457;52.432;16.914;2023-03-21T13:44:35;100466.10;;;12.92;65.37
31911;BME280;18457;52.432;16.914;2023-03-21T13:50:58;100458.11;;;12.76;66.44
31911;BME280;18457;52.432;16.914;2023-03-21T13:53:36;100457.33;;;12.72;67.03
31911;BME280;18457;52.432;16.914;2023-03-21T13:56:20;100459.01;;;12.65;67.95